sensor_id;sensor_type;location;lat;lon;timestamp;temperature;humidity
28484;DHT22;15704;48.834;8.736;2023-05-23T00:00:13;15.90;99.90
28484;DHT22;15704;48.834;8.736;2023-05-23T00:02:41;15.80;99.90
28484;DHT22;15704;48.834;8.736;2023-05-23T00:05:08;15.90;99.90
28484;DHT22;15704;48.834;8.736;2023-05-23T00:07:35;15.90;99.90
28484;DHT22;15704;48.834;8.736;2023-05-23T00:10:03;15.90;99.90
28484;DHT22;15704;48.834;8.736;2023-05-23T00:12:30;15.90;99.90
28484;DHT22;15704;48.834;8.736;2023-05-23T00:14:57;15.90;99.90
28484;DHT22;15704;48.834;8.736;2023-05-23T00:17:23;15.80;99.90
28484;DHT22;15704;48.834;8.736;2023-05-23T00:19:51;15.80;99.90
28484;DHT22;15704;48.834;8.736;2023-05-23T00:22:18;15.80;99.90
28484;DHT22;15704;48.834;8.736;2023-05-23T00:24:45;15.70;99.90
28484;DHT22;15704;48.834;8.736;2023-05-23T00:27:12;15.60;99.90
28484;DHT22;15704;48.834;8.736;2023-05-23T00:29:38;15.50;99.90
28484;DHT22;15704;48.834;8.736;2023-05-23T00:32:05;15.50;99.90
28484;DHT22;15704;48.834;8.736;2023-05-23T00:34:32;15.40;99.90
28484;DHT22;15704;48.834;8.736;2023-05-23T00:37:00;15.40;99.90
28484;DHT22;15704;48.834;8.736;2023-05-23T00:39:27;15.40;99.90
28484;DHT22;15704;48.834;8.736;2023-05-23T00:41:54;15.40;99.90
28484;DHT22;15704;48.834;8.736;2023-05-23T00:44:22;15.40;99.90
28484;DHT22;15704;48.834;8.736;2023-05-23T00:46:52;15.30;99.90
28484;DHT22;15704;48.834;8.736;2023-05-23T00:49:21;15.30;99.90
28484;DHT22;15704;48.834;8.736;2023-05-23T00:51:48;15.40;99.90
28484;DHT22;15704;48.834;8.736;2023-05-23T00:54:22;15.40;99.90
28484;DHT22;15704;48.834;8.736;2023-05-23T00:56:50;15.50;99.90
28484;DHT22;15704;48.834;8.736;2023-05-23T00:59:17;15.50;99.90
28484;DHT22;15704;48.834;8.736;2023-05-23T01:01:43;15.50;99.90
28484;DHT22;15704;48.834;8.736;2023-05-23T01:04:13;15.50;99.90
28484;DHT22;15704;48.834;8.736;2023-05-23T01:06:42;15.50;99.90
28484;DHT22;15704;48.834;8.736;2023-05-23T01:09:17;15.60;99.90
28484;DHT22;15704;48.834;8.736;2023-05-23T01:11:47;15.50;99.90
28484;DHT22;15704;48.834;8.736;2023-05-23T01:14:26;15.50;99.90
28484;DHT22;15704;48.834;8.736;2023-05-23T01:17:12;15.50;99.90
28484;DHT22;15704;48.834;8.736;2023-05-23T01:28:13;15.60;99.90
28484;DHT22;15704;48.834;8.736;2023-05-23T01:30:43;15.60;99.90
28484;DHT22;15704;48.834;8.736;2023-05-23T01:33:13;15.60;99.90
28484;DHT22;15704;48.834;8.736;2023-05-23T01:35:42;15.60;99.90
28484;DHT22;15704;48.834;8.736;2023-05-23T01:38:09;15.60;99.90
28484;DHT22;15704;48.834;8.736;2023-05-23T01:40:37;15.60;99.90
28484;DHT22;15704;48.834;8.736;2023-05-23T01:43:04;15.60;99.90
28484;DHT22;15704;48.834;8.736;2023-05-23T01:45:32;15.60;99.90
28484;DHT22;15704;48.834;8.736;2023-05-23T01:48:00;15.60;99.90
28484;DHT22;15704;48.834;8.736;2023-05-23T01:50:28;15.60;99.90
28484;DHT22;15704;48.834;8.736;2023-05-23T01:52:56;15.60;99.90
28484;DHT22;15704;48.834;8.736;2023-05-23T01:55:24;15.60;99.90
28484;DHT22;15704;48.834;8.736;2023-05-23T01:57:55;15.60;99.90
28484;DHT22;15704;48.834;8.736;2023-05-23T02:00:23;15.60;99.90
28484;DHT22;15704;48.834;8.736;2023-05-23T02:02:50;15.70;99.90
28484;DHT22;15704;48.834;8.736;2023-05-23T02:05:17;15.70;99.90
28484;DHT22;15704;48.834;8.736;2023-05-23T02:07:44;15.60;99.90
28484;DHT22;15704;48.834;8.736;2023-05-23T02:10:10;15.60;99.90
28484;DHT22;15704;48.834;8.736;2023-05-23T02:12:37;15.70;99.90
28484;DHT22;15704;48.834;8.736;2023-05-23T02:15:04;15.70;99.90
28484;DHT22;15704;48.834;8.736;2023-05-23T02:17:31;15.70;99.90
28484;DHT22;15704;48.834;8.736;2023-05-23T02:19:58;15.70;99.90
28484;DHT22;15704;48.834;8.736;2023-05-23T02:22:25;15.70;99.90
28484;DHT22;15704;48.834;8.736;2023-05-23T02:24:52;15.70;99.90
28484;DHT22;15704;48.834;8.736;2023-05-23T02:27:19;15.60;99.90
28484;DHT22;15704;48.834;8.736;2023-05-23T02:29:45;15.60;99.90
28484;DHT22;15704;48.834;8.736;2023-05-23T02:32:12;15.60;99.90
28484;DHT22;15704;48.834;8.736;2023-05-23T02:34:39;15.60;99.90
28484;DHT22;15704;48.834;8.736;2023-05-23T02:37:06;15.60;99.90
28484;DHT22;15704;48.834;8.736;2023-05-23T02:39:34;15.60;99.90
28484;DHT22;15704;48.834;8.736;2023-05-23T02:42:01;15.50;99.90
28484;DHT22;15704;48.834;8.736;2023-05-23T02:44:29;15.60;99.90
28484;DHT22;15704;48.834;8.736;2023-05-23T02:46:56;15.50;99.90
28484;DHT22;15704;48.834;8.736;2023-05-23T02:49:22;15.60;99.90
28484;DHT22;15704;48.834;8.736;2023-05-23T02:51:49;15.50;99.90
28484;DHT22;15704;48.834;8.736;2023-05-23T02:54:16;15.50;99.90
28484;DHT22;15704;48.834;8.736;2023-05-23T02:56:44;15.50;99.90
28484;DHT22;15704;48.834;8.736;2023-05-23T02:59:11;15.50;99.90
28484;DHT22;15704;48.834;8.736;2023-05-23T03:01:38;15.50;99.90
28484;DHT22;15704;48.834;8.736;2023-05-23T03:04:04;15.50;99.90
28484;DHT22;15704;48.834;8.736;2023-05-23T03:06:31;15.40;99.90
28484;DHT22;15704;48.834;8.736;2023-05-23T03:09:00;15.40;99.90
28484;DHT22;15704;48.834;8.736;2023-05-23T03:11:27;15.40;99.90
28484;DHT22;15704;48.834;8.736;2023-05-23T03:13:55;15.30;99.90
28484;DHT22;15704;48.834;8.736;2023-05-23T03:16:22;15.40;99.90
28484;DHT22;15704;48.834;8.736;2023-05-23T03:18:49;15.30;99.90
28484;DHT22;15704;48.834;8.736;2023-05-23T03:21:16;15.30;99.90
28484;DHT22;15704;48.834;8.736;2023-05-23T03:23:43;15.40;99.90
28484;DHT22;15704;48.834;8.736;2023-05-23T03:26:09;15.40;99.90
28484;DHT22;15704;48.834;8.736;2023-05-23T03:28:37;15.40;99.90
28484;DHT22;15704;48.834;8.736;2023-05-23T03:31:04;15.40;99.90
28484;DHT22;15704;48.834;8.736;2023-05-23T03:33:30;15.40;99.90
28484;DHT22;15704;48.834;8.736;2023-05-23T03:35:57;15.30;99.90
28484;DHT22;15704;48.834;8.736;2023-05-23T03:38:24;15.30;99.90
28484;DHT22;15704;48.834;8.736;2023-05-23T03:40:51;15.30;99.90
28484;DHT22;15704;48.834;8.736;2023-05-23T03:43:18;15.40;99.90
28484;DHT22;15704;48.834;8.736;2023-05-23T03:45:45;15.20;99.90
28484;DHT22;15704;48.834;8.736;2023-05-23T03:48:12;15.20;99.90
28484;DHT22;15704;48.834;8.736;2023-05-23T03:50:39;15.20;99.90
28484;DHT22;15704;48.834;8.736;2023-05-23T03:53:06;15.20;99.90
28484;DHT22;15704;48.834;8.736;2023-05-23T03:55:33;15.30;99.90
28484;DHT22;15704;48.834;8.736;2023-05-23T03:57:59;15.20;99.90
28484;DHT22;15704;48.834;8.736;2023-05-23T04:00:26;15.30;99.90
28484;DHT22;15704;48.834;8.736;2023-05-23T04:02:53;15.20;99.90
28484;DHT22;15704;48.834;8.736;2023-05-23T04:05:20;15.20;99.90
28484;DHT22;15704;48.834;8.736;2023-05-23T04:07:47;15.30;99.90
28484;DHT22;15704;48.834;8.736;2023-05-23T04:10:14;15.20;99.90
28484;DHT22;15704;48.834;8.736;2023-05-23T04:12:41;15.10;99.90
28484;DHT22;15704;48.834;8.736;2023-05-23T04:15:08;15.20;99.90
28484;DHT22;15704;48.834;8.736;2023-05-23T04:17:35;15.20;99.90
28484;DHT22;15704;48.834;8.736;2023-05-23T04:20:08;15.10;99.90
28484;DHT22;15704;48.834;8.736;2023-05-23T04:22:35;15.10;99.90
28484;DHT22;15704;48.834;8.736;2023-05-23T04:25:02;15.10;99.90
28484;DHT22;15704;48.834;8.736;2023-05-23T04:27:29;15.10;99.90
28484;DHT22;15704;48.834;8.736;2023-05-23T04:29:56;15.10;99.90
28484;DHT22;15704;48.834;8.736;2023-05-23T04:32:23;15.10;99.90
28484;DHT22;15704;48.834;8.736;2023-05-23T04:34:50;15.10;99.90
28484;DHT22;15704;48.834;8.736;2023-05-23T04:37:18;15.00;99.90
28484;DHT22;15704;48.834;8.736;2023-05-23T04:39:47;15.10;99.90
28484;DHT22;15704;48.834;8.736;2023-05-23T04:42:14;14.90;99.90
28484;DHT22;15704;48.834;8.736;2023-05-23T04:44:41;14.90;99.90
28484;DHT22;15704;48.834;8.736;2023-05-23T04:47:08;14.90;99.90
28484;DHT22;15704;48.834;8.736;2023-05-23T04:49:36;14.80;99.90
28484;DHT22;15704;48.834;8.736;2023-05-23T04:52:03;14.80;99.90
28484;DHT22;15704;48.834;8.736;2023-05-23T04:54:29;14.90;99.90
28484;DHT22;15704;48.834;8.736;2023-05-23T04:56:56;14.80;99.90
28484;DHT22;15704;48.834;8.736;2023-05-23T04:59:23;14.80;99.90
28484;DHT22;15704;48.834;8.736;2023-05-23T05:01:50;14.80;99.90
28484;DHT22;15704;48.834;8.736;2023-05-23T05:04:17;14.80;99.90
28484;DHT22;15704;48.834;8.736;2023-05-23T05:06:44;14.80;99.90
28484;DHT22;15704;48.834;8.736;2023-05-23T05:09:11;14.70;99.90
28484;DHT22;15704;48.834;8.736;2023-05-23T05:11:37;14.70;99.90
28484;DHT22;15704;48.834;8.736;2023-05-23T05:14:04;14.80;99.90
28484;DHT22;15704;48.834;8.736;2023-05-23T05:16:31;14.70;99.90
28484;DHT22;15704;48.834;8.736;2023-05-23T05:18:58;14.80;99.90
28484;DHT22;15704;48.834;8.736;2023-05-23T05:21:25;14.70;99.90
28484;DHT22;15704;48.834;8.736;2023-05-23T05:23:51;14.70;99.90
28484;DHT22;15704;48.834;8.736;2023-05-23T05:26:19;14.70;99.90
28484;DHT22;15704;48.834;8.736;2023-05-23T05:28:46;14.70;99.90
28484;DHT22;15704;48.834;8.736;2023-05-23T05:31:13;14.70;99.90
28484;DHT22;15704;48.834;8.736;2023-05-23T05:33:41;14.80;99.90
28484;DHT22;15704;48.834;8.736;2023-05-23T05:36:11;14.80;99.90
28484;DHT22;15704;48.834;8.736;2023-05-23T05:38:38;14.80;99.90
28484;DHT22;15704;48.834;8.736;2023-05-23T05:41:04;14.90;99.90
28484;DHT22;15704;48.834;8.736;2023-05-23T05:43:34;14.90;99.90
28484;DHT22;15704;48.834;8.736;2023-05-23T05:46:01;14.90;99.90
28484;DHT22;15704;48.834;8.736;2023-05-23T05:48:28;14.90;99.90
28484;DHT22;15704;48.834;8.736;2023-05-23T05:50:55;15.00;99.90
28484;DHT22;15704;48.834;8.736;2023-05-23T05:53:21;15.10;99.90
28484;DHT22;15704;48.834;8.736;2023-05-23T05:55:48;15.10;99.90
28484;DHT22;15704;48.834;8.736;2023-05-23T05:58:15;15.10;99.90
28484;DHT22;15704;48.834;8.736;2023-05-23T06:00:42;15.10;99.90
28484;DHT22;15704;48.834;8.736;2023-05-23T06:03:09;15.10;99.90
28484;DHT22;15704;48.834;8.736;2023-05-23T06:05:36;15.10;99.90
28484;DHT22;15704;48.834;8.736;2023-05-23T06:08:03;15.10;99.90
28484;DHT22;15704;48.834;8.736;2023-05-23T06:10:30;15.10;99.90
28484;DHT22;15704;48.834;8.736;2023-05-23T06:12:57;15.10;99.90
28484;DHT22;15704;48.834;8.736;2023-05-23T06:15:25;15.10;99.90
28484;DHT22;15704;48.834;8.736;2023-05-23T06:17:52;15.10;99.90
28484;DHT22;15704;48.834;8.736;2023-05-23T06:20:19;15.00;99.90
28484;DHT22;15704;48.834;8.736;2023-05-23T06:22:46;14.90;99.90
28484;DHT22;15704;48.834;8.736;2023-05-23T06:25:12;15.00;99.90
28484;DHT22;15704;48.834;8.736;2023-05-23T06:27:39;14.90;99.90
28484;DHT22;15704;48.834;8.736;2023-05-23T06:30:07;14.80;99.90
28484;DHT22;15704;48.834;8.736;2023-05-23T06:32:34;14.70;99.90
28484;DHT22;15704;48.834;8.736;2023-05-23T06:35:01;14.60;99.90
28484;DHT22;15704;48.834;8.736;2023-05-23T06:37:28;14.70;99.90
28484;DHT22;15704;48.834;8.736;2023-05-23T06:39:54;14.60;99.90
28484;DHT22;15704;48.834;8.736;2023-05-23T06:42:21;14.60;99.90
28484;DHT22;15704;48.834;8.736;2023-05-23T06:44:48;14.60;99.90
28484;DHT22;15704;48.834;8.736;2023-05-23T06:47:15;14.60;99.90
28484;DHT22;15704;48.834;8.736;2023-05-23T06:49:42;14.50;99.90
28484;DHT22;15704;48.834;8.736;2023-05-23T06:52:08;14.30;99.90
28484;DHT22;15704;48.834;8.736;2023-05-23T06:54:35;14.40;99.90
28484;DHT22;15704;48.834;8.736;2023-05-23T06:57:02;14.40;99.90
28484;DHT22;15704;48.834;8.736;2023-05-23T06:59:29;14.30;99.90
28484;DHT22;15704;48.834;8.736;2023-05-23T07:01:56;14.30;99.90
28484;DHT22;15704;48.834;8.736;2023-05-23T07:04:22;14.40;99.90
28484;DHT22;15704;48.834;8.736;2023-05-23T07:06:49;14.20;99.90
28484;DHT22;15704;48.834;8.736;2023-05-23T07:09:18;14.20;99.90
28484;DHT22;15704;48.834;8.736;2023-05-23T07:11:45;14.10;99.90
28484;DHT22;15704;48.834;8.736;2023-05-23T07:14:12;14.30;99.90
28484;DHT22;15704;48.834;8.736;2023-05-23T07:16:38;14.20;99.90
28484;DHT22;15704;48.834;8.736;2023-05-23T07:19:05;14.20;99.90
28484;DHT22;15704;48.834;8.736;2023-05-23T07:21:32;14.20;99.90
28484;DHT22;15704;48.834;8.736;2023-05-23T07:23:59;14.30;99.90
28484;DHT22;15704;48.834;8.736;2023-05-23T07:26:26;14.30;99.90
28484;DHT22;15704;48.834;8.736;2023-05-23T07:28:53;14.40;99.90
28484;DHT22;15704;48.834;8.736;2023-05-23T07:31:20;14.40;99.90
28484;DHT22;15704;48.834;8.736;2023-05-23T07:33:47;14.40;99.90
28484;DHT22;15704;48.834;8.736;2023-05-23T07:36:13;14.40;99.90
28484;DHT22;15704;48.834;8.736;2023-05-23T07:38:40;14.60;99.90
28484;DHT22;15704;48.834;8.736;2023-05-23T07:53:12;15.00;99.90
28484;DHT22;15704;48.834;8.736;2023-05-23T07:55:38;15.10;99.90
28484;DHT22;15704;48.834;8.736;2023-05-23T07:58:05;15.00;99.90
28484;DHT22;15704;48.834;8.736;2023-05-23T08:00:32;15.10;99.90
28484;DHT22;15704;48.834;8.736;2023-05-23T08:02:59;14.80;99.90
28484;DHT22;15704;48.834;8.736;2023-05-23T08:05:26;14.80;99.90
28484;DHT22;15704;48.834;8.736;2023-05-23T08:07:53;14.90;99.90
28484;DHT22;15704;48.834;8.736;2023-05-23T08:10:20;14.90;99.90
28484;DHT22;15704;48.834;8.736;2023-05-23T08:12:47;15.10;99.90
28484;DHT22;15704;48.834;8.736;2023-05-23T08:15:14;15.10;99.90
28484;DHT22;15704;48.834;8.736;2023-05-23T08:17:40;15.10;99.90
28484;DHT22;15704;48.834;8.736;2023-05-23T08:20:08;15.10;99.90
28484;DHT22;15704;48.834;8.736;2023-05-23T08:22:35;15.10;99.90
28484;DHT22;15704;48.834;8.736;2023-05-23T08:25:02;15.20;99.90
28484;DHT22;15704;48.834;8.736;2023-05-23T09:56:10;17.20;99.90
28484;DHT22;15704;48.834;8.736;2023-05-23T09:58:38;17.90;99.90
28484;DHT22;15704;48.834;8.736;2023-05-23T10:01:09;17.60;99.90
28484;DHT22;15704;48.834;8.736;2023-05-23T10:03:51;18.20;99.90
28484;DHT22;15704;48.834;8.736;2023-05-23T10:06:28;18.30;99.90
28484;DHT22;15704;48.834;8.736;2023-05-23T10:09:03;18.10;99.90
28484;DHT22;15704;48.834;8.736;2023-05-23T10:14:08;17.60;99.90
28484;DHT22;15704;48.834;8.736;2023-05-23T10:16:58;17.30;99.90
28484;DHT22;15704;48.834;8.736;2023-05-23T10:20:03;17.60;99.90
28484;DHT22;15704;48.834;8.736;2023-05-23T10:22:35;17.20;99.90
28484;DHT22;15704;48.834;8.736;2023-05-23T10:25:06;17.30;99.90
28484;DHT22;15704;48.834;8.736;2023-05-23T10:27:37;16.90;99.90
28484;DHT22;15704;48.834;8.736;2023-05-23T10:30:08;16.90;99.90
28484;DHT22;15704;48.834;8.736;2023-05-23T10:32:37;16.60;99.90
28484;DHT22;15704;48.834;8.736;2023-05-23T10:35:24;16.70;99.90
28484;DHT22;15704;48.834;8.736;2023-05-23T10:43:19;17.60;99.90
28484;DHT22;15704;48.834;8.736;2023-05-23T10:45:49;17.30;99.90
28484;DHT22;15704;48.834;8.736;2023-05-23T10:48:22;18.10;99.90
28484;DHT22;15704;48.834;8.736;2023-05-23T10:53:33;18.10;99.90
28484;DHT22;15704;48.834;8.736;2023-05-23T10:56:00;17.90;99.90
28484;DHT22;15704;48.834;8.736;2023-05-23T10:58:29;18.20;99.90
28484;DHT22;15704;48.834;8.736;2023-05-23T11:01:00;18.30;99.90
28484;DHT22;15704;48.834;8.736;2023-05-23T11:06:04;18.70;99.90
28484;DHT22;15704;48.834;8.736;2023-05-23T11:08:38;18.60;99.90
28484;DHT22;15704;48.834;8.736;2023-05-23T11:11:14;18.90;99.90
28484;DHT22;15704;48.834;8.736;2023-05-23T11:16:38;18.80;99.90
28484;DHT22;15704;48.834;8.736;2023-05-23T11:21:45;17.90;99.90
28484;DHT22;15704;48.834;8.736;2023-05-23T11:24:12;17.50;99.90
28484;DHT22;15704;48.834;8.736;2023-05-23T11:26:39;17.70;99.90
28484;DHT22;15704;48.834;8.736;2023-05-23T11:29:09;17.90;99.90
28484;DHT22;15704;48.834;8.736;2023-05-23T11:31:38;18.20;99.90
28484;DHT22;15704;48.834;8.736;2023-05-23T11:34:06;18.40;99.90
28484;DHT22;15704;48.834;8.736;2023-05-23T11:36:34;18.20;99.90
28484;DHT22;15704;48.834;8.736;2023-05-23T11:39:02;18.50;99.90
28484;DHT22;15704;48.834;8.736;2023-05-23T11:41:30;18.70;99.90
28484;DHT22;15704;48.834;8.736;2023-05-23T11:43:56;18.80;99.90
28484;DHT22;15704;48.834;8.736;2023-05-23T11:46:25;18.60;99.90
28484;DHT22;15704;48.834;8.736;2023-05-23T11:48:52;18.30;99.90
28484;DHT22;15704;48.834;8.736;2023-05-23T11:51:20;19.00;99.90
28484;DHT22;15704;48.834;8.736;2023-05-23T11:53:47;18.70;99.90
28484;DHT22;15704;48.834;8.736;2023-05-23T11:56:14;18.50;99.90
28484;DHT22;15704;48.834;8.736;2023-05-23T11:58:42;18.60;99.90
28484;DHT22;15704;48.834;8.736;2023-05-23T12:01:11;18.20;99.90
28484;DHT22;15704;48.834;8.736;2023-05-23T12:03:49;18.30;99.90
28484;DHT22;15704;48.834;8.736;2023-05-23T12:06:20;18.50;99.90
28484;DHT22;15704;48.834;8.736;2023-05-23T12:08:50;18.80;99.90
28484;DHT22;15704;48.834;8.736;2023-05-23T12:11:17;18.80;99.90
28484;DHT22;15704;48.834;8.736;2023-05-23T12:13:44;18.50;99.90
28484;DHT22;15704;48.834;8.736;2023-05-23T12:16:13;18.50;99.90
28484;DHT22;15704;48.834;8.736;2023-05-23T12:18:41;19.20;99.90
28484;DHT22;15704;48.834;8.736;2023-05-23T12:21:09;19.00;99.90
28484;DHT22;15704;48.834;8.736;2023-05-23T12:26:13;19.00;99.90
28484;DHT22;15704;48.834;8.736;2023-05-23T12:28:41;18.90;99.90
28484;DHT22;15704;48.834;8.736;2023-05-23T12:31:31;19.10;99.90
28484;DHT22;15704;48.834;8.736;2023-05-23T12:33:57;18.80;99.90
28484;DHT22;15704;48.834;8.736;2023-05-23T12:36:28;18.50;99.90
28484;DHT22;15704;48.834;8.736;2023-05-23T12:39:04;18.40;99.90
28484;DHT22;15704;48.834;8.736;2023-05-23T12:41:34;18.50;99.90
28484;DHT22;15704;48.834;8.736;2023-05-23T12:44:02;18.70;99.90
28484;DHT22;15704;48.834;8.736;2023-05-23T12:46:30;18.60;99.90
28484;DHT22;15704;48.834;8.736;2023-05-23T12:48:57;18.70;99.90
28484;DHT22;15704;48.834;8.736;2023-05-23T12:51:23;18.70;99.90
28484;DHT22;15704;48.834;8.736;2023-05-23T12:53:50;18.60;99.90
28484;DHT22;15704;48.834;8.736;2023-05-23T12:56:18;18.30;99.90
28484;DHT22;15704;48.834;8.736;2023-05-23T12:58:46;18.20;99.90
28484;DHT22;15704;48.834;8.736;2023-05-23T13:01:13;17.90;99.90
28484;DHT22;15704;48.834;8.736;2023-05-23T13:03:40;17.70;99.90
28484;DHT22;15704;48.834;8.736;2023-05-23T13:06:07;17.30;99.90
28484;DHT22;15704;48.834;8.736;2023-05-23T13:08:33;17.10;99.90
28484;DHT22;15704;48.834;8.736;2023-05-23T13:11:00;17.00;99.90
28484;DHT22;15704;48.834;8.736;2023-05-23T13:13:27;16.90;99.90
28484;DHT22;15704;48.834;8.736;2023-05-23T13:15:55;16.90;99.90
28484;DHT22;15704;48.834;8.736;2023-05-23T13:18:22;16.90;99.90
28484;DHT22;15704;48.834;8.736;2023-05-23T13:20:49;17.10;99.90
28484;DHT22;15704;48.834;8.736;2023-05-23T13:23:15;17.10;99.90
28484;DHT22;15704;48.834;8.736;2023-05-23T13:25:42;17.30;99.90
28484;DHT22;15704;48.834;8.736;2023-05-23T13:28:09;17.30;99.90
28484;DHT22;15704;48.834;8.736;2023-05-23T13:30:36;17.30;99.90
28484;DHT22;15704;48.834;8.736;2023-05-23T13:33:03;17.40;99.90
28484;DHT22;15704;48.834;8.736;2023-05-23T13:35:30;17.40;99.90
28484;DHT22;15704;48.834;8.736;2023-05-23T13:37:57;17.60;99.90
28484;DHT22;15704;48.834;8.736;2023-05-23T13:40:24;18.10;99.90
28484;DHT22;15704;48.834;8.736;2023-05-23T13:42:51;18.00;99.90
28484;DHT22;15704;48.834;8.736;2023-05-23T13:45:18;18.30;99.90
28484;DHT22;15704;48.834;8.736;2023-05-23T13:47:45;18.00;99.90
28484;DHT22;15704;48.834;8.736;2023-05-23T13:50:13;18.20;99.90
28484;DHT22;15704;48.834;8.736;2023-05-23T13:52:40;18.40;99.90
28484;DHT22;15704;48.834;8.736;2023-05-23T13:55:12;18.30;99.90
28484;DHT22;15704;48.834;8.736;2023-05-23T13:57:38;18.80;99.90
28484;DHT22;15704;48.834;8.736;2023-05-23T14:00:06;18.80;99.90
28484;DHT22;15704;48.834;8.736;2023-05-23T14:02:35;18.70;99.90
28484;DHT22;15704;48.834;8.736;2023-05-23T14:05:02;19.10;99.90
28484;DHT22;15704;48.834;8.736;2023-05-23T14:07:29;19.00;99.90
28484;DHT22;15704;48.834;8.736;2023-05-23T14:09:56;18.90;99.90
28484;DHT22;15704;48.834;8.736;2023-05-23T14:12:25;18.80;99.90
28484;DHT22;15704;48.834;8.736;2023-05-23T14:14:52;18.90;99.90
28484;DHT22;15704;48.834;8.736;2023-05-23T14:17:18;19.10;99.90
28484;DHT22;15704;48.834;8.736;2023-05-23T14:19:45;18.70;99.90
28484;DHT22;15704;48.834;8.736;2023-05-23T14:22:13;18.60;99.90
28484;DHT22;15704;48.834;8.736;2023-05-23T14:24:39;18.70;99.90
28484;DHT22;15704;48.834;8.736;2023-05-23T14:27:06;18.70;99.90
28484;DHT22;15704;48.834;8.736;2023-05-23T14:29:36;18.40;99.90
28484;DHT22;15704;48.834;8.736;2023-05-23T14:32:03;18.50;99.90
28484;DHT22;15704;48.834;8.736;2023-05-23T14:34:30;18.20;99.90
28484;DHT22;15704;48.834;8.736;2023-05-23T14:36:57;18.30;99.90
28484;DHT22;15704;48.834;8.736;2023-05-23T14:39:27;18.50;99.90
28484;DHT22;15704;48.834;8.736;2023-05-23T14:41:54;18.70;99.90
28484;DHT22;15704;48.834;8.736;2023-05-23T14:44:21;18.80;99.90
28484;DHT22;15704;48.834;8.736;2023-05-23T14:46:48;18.90;99.90
28484;DHT22;15704;48.834;8.736;2023-05-23T14:49:16;18.70;99.90
28484;DHT22;15704;48.834;8.736;2023-05-23T14:51:43;18.90;99.90
28484;DHT22;15704;48.834;8.736;2023-05-23T14:54:16;19.20;99.90
28484;DHT22;15704;48.834;8.736;2023-05-23T14:56:43;19.20;99.90
28484;DHT22;15704;48.834;8.736;2023-05-23T14:59:10;18.70;99.90
28484;DHT22;15704;48.834;8.736;2023-05-23T15:01:37;18.50;99.90
28484;DHT22;15704;48.834;8.736;2023-05-23T15:04:06;18.50;99.90
28484;DHT22;15704;48.834;8.736;2023-05-23T15:06:35;18.10;99.90
28484;DHT22;15704;48.834;8.736;2023-05-23T15:09:03;18.20;99.90
28484;DHT22;15704;48.834;8.736;2023-05-23T15:11:30;18.00;99.90
28484;DHT22;15704;48.834;8.736;2023-05-23T15:13:57;18.10;99.90
28484;DHT22;15704;48.834;8.736;2023-05-23T15:16:25;18.20;99.90
28484;DHT22;15704;48.834;8.736;2023-05-23T15:18:52;18.10;99.90
28484;DHT22;15704;48.834;8.736;2023-05-23T15:21:19;18.30;99.90
28484;DHT22;15704;48.834;8.736;2023-05-23T15:23:45;18.50;99.90
28484;DHT22;15704;48.834;8.736;2023-05-23T15:26:12;18.50;99.90
28484;DHT22;15704;48.834;8.736;2023-05-23T15:28:39;18.60;99.90
28484;DHT22;15704;48.834;8.736;2023-05-23T15:31:06;18.70;99.90
28484;DHT22;15704;48.834;8.736;2023-05-23T15:33:32;19.00;99.90
28484;DHT22;15704;48.834;8.736;2023-05-23T15:35:59;18.70;99.90
28484;DHT22;15704;48.834;8.736;2023-05-23T15:38:26;18.40;99.90
28484;DHT22;15704;48.834;8.736;2023-05-23T15:40:53;18.00;99.90
28484;DHT22;15704;48.834;8.736;2023-05-23T15:43:21;17.90;99.90
28484;DHT22;15704;48.834;8.736;2023-05-23T15:45:50;17.90;99.90
28484;DHT22;15704;48.834;8.736;2023-05-23T15:48:17;18.00;99.90
28484;DHT22;15704;48.834;8.736;2023-05-23T15:50:44;18.10;99.90
28484;DHT22;15704;48.834;8.736;2023-05-23T15:53:11;18.10;99.90
28484;DHT22;15704;48.834;8.736;2023-05-23T15:55:38;18.50;99.90
28484;DHT22;15704;48.834;8.736;2023-05-23T15:58:08;18.40;99.90
28484;DHT22;15704;48.834;8.736;2023-05-23T16:00:35;18.40;99.90
28484;DHT22;15704;48.834;8.736;2023-05-23T16:03:02;18.40;99.90
28484;DHT22;15704;48.834;8.736;2023-05-23T16:05:29;18.30;99.90
28484;DHT22;15704;48.834;8.736;2023-05-23T16:07:55;18.00;99.90
28484;DHT22;15704;48.834;8.736;2023-05-23T16:10:22;18.00;99.90
28484;DHT22;15704;48.834;8.736;2023-05-23T16:12:50;17.80;99.90
28484;DHT22;15704;48.834;8.736;2023-05-23T16:15:17;17.70;99.90
28484;DHT22;15704;48.834;8.736;2023-05-23T16:17:43;17.70;99.90
28484;DHT22;15704;48.834;8.736;2023-05-23T16:20:10;17.60;99.90
28484;DHT22;15704;48.834;8.736;2023-05-23T16:22:37;17.70;99.90
28484;DHT22;15704;48.834;8.736;2023-05-23T16:25:04;17.30;99.90
28484;DHT22;15704;48.834;8.736;2023-05-23T16:27:33;17.50;99.90
28484;DHT22;15704;48.834;8.736;2023-05-23T16:30:00;17.50;99.90
28484;DHT22;15704;48.834;8.736;2023-05-23T16:32:27;17.50;99.90
28484;DHT22;15704;48.834;8.736;2023-05-23T16:34:54;17.40;99.90
28484;DHT22;15704;48.834;8.736;2023-05-23T16:37:21;17.80;99.90
28484;DHT22;15704;48.834;8.736;2023-05-23T16:39:48;17.60;99.90
28484;DHT22;15704;48.834;8.736;2023-05-23T16:42:14;17.40;99.90
28484;DHT22;15704;48.834;8.736;2023-05-23T16:44:41;17.40;99.90
28484;DHT22;15704;48.834;8.736;2023-05-23T16:47:08;16.80;99.90
28484;DHT22;15704;48.834;8.736;2023-05-23T16:49:35;16.70;99.90
28484;DHT22;15704;48.834;8.736;2023-05-23T16:52:02;16.70;99.90
28484;DHT22;15704;48.834;8.736;2023-05-23T16:54:29;16.50;99.90
28484;DHT22;15704;48.834;8.736;2023-05-23T16:56:55;16.60;99.90
28484;DHT22;15704;48.834;8.736;2023-05-23T16:59:23;16.40;99.90
28484;DHT22;15704;48.834;8.736;2023-05-23T17:01:50;16.50;99.90
28484;DHT22;15704;48.834;8.736;2023-05-23T17:04:17;16.40;99.90
28484;DHT22;15704;48.834;8.736;2023-05-23T17:06:46;16.40;99.90
28484;DHT22;15704;48.834;8.736;2023-05-23T17:09:13;16.20;99.90
28484;DHT22;15704;48.834;8.736;2023-05-23T17:11:39;16.20;99.90
28484;DHT22;15704;48.834;8.736;2023-05-23T17:14:06;16.30;99.90
28484;DHT22;15704;48.834;8.736;2023-05-23T17:16:33;16.40;99.90
28484;DHT22;15704;48.834;8.736;2023-05-23T17:19:00;16.30;99.90
28484;DHT22;15704;48.834;8.736;2023-05-23T17:21:27;16.20;99.90
28484;DHT22;15704;48.834;8.736;2023-05-23T17:23:54;16.30;99.90
28484;DHT22;15704;48.834;8.736;2023-05-23T17:26:21;16.10;99.90
28484;DHT22;15704;48.834;8.736;2023-05-23T17:28:47;16.10;99.90
28484;DHT22;15704;48.834;8.736;2023-05-23T17:31:14;16.10;99.90
28484;DHT22;15704;48.834;8.736;2023-05-23T17:33:41;16.00;99.90
28484;DHT22;15704;48.834;8.736;2023-05-23T17:36:09;15.80;99.90
28484;DHT22;15704;48.834;8.736;2023-05-23T17:38:36;15.60;99.90
28484;DHT22;15704;48.834;8.736;2023-05-23T17:41:04;15.50;99.90
28484;DHT22;15704;48.834;8.736;2023-05-23T17:43:31;15.40;99.90